sensor_id;sensor_type;location;lat;lon;timestamp;temperature;humidity
46364;DHT22;32071;49.036;9.344;2022-11-23T00:03:47;3.20;99.90
46364;DHT22;32071;49.036;9.344;2022-11-23T00:06:13;3.10;99.90
46364;DHT22;32071;49.036;9.344;2022-11-23T00:08:39;3.10;99.90
46364;DHT22;32071;49.036;9.344;2022-11-23T00:11:05;3.10;99.90
46364;DHT22;32071;49.036;9.344;2022-11-23T00:13:31;3.10;99.90
46364;DHT22;32071;49.036;9.344;2022-11-23T00:15:56;3.00;99.90
46364;DHT22;32071;49.036;9.344;2022-11-23T00:18:22;2.90;99.90
46364;DHT22;32071;49.036;9.344;2022-11-23T00:20:47;2.80;99.90
46364;DHT22;32071;49.036;9.344;2022-11-23T00:23:13;2.80;99.90
46364;DHT22;32071;49.036;9.344;2022-11-23T00:25:38;2.80;99.90
46364;DHT22;32071;49.036;9.344;2022-11-23T00:28:04;2.80;99.90
46364;DHT22;32071;49.036;9.344;2022-11-23T00:30:30;2.80;99.90
46364;DHT22;32071;49.036;9.344;2022-11-23T00:32:55;2.90;99.90
46364;DHT22;32071;49.036;9.344;2022-11-23T00:35:21;2.90;99.90
46364;DHT22;32071;49.036;9.344;2022-11-23T00:37:47;3.00;99.90
46364;DHT22;32071;49.036;9.344;2022-11-23T00:40:13;3.10;99.90
46364;DHT22;32071;49.036;9.344;2022-11-23T00:42:39;3.20;99.90
46364;DHT22;32071;49.036;9.344;2022-11-23T00:45:05;3.30;99.90
46364;DHT22;32071;49.036;9.344;2022-11-23T00:47:30;3.30;99.90
46364;DHT22;32071;49.036;9.344;2022-11-23T00:49:56;3.40;99.90
46364;DHT22;32071;49.036;9.344;2022-11-23T00:52:22;3.40;99.90
46364;DHT22;32071;49.036;9.344;2022-11-23T00:54:47;3.50;99.90
46364;DHT22;32071;49.036;9.344;2022-11-23T00:57:13;3.50;99.90
46364;DHT22;32071;49.036;9.344;2022-11-23T00:59:38;3.60;99.90
46364;DHT22;32071;49.036;9.344;2022-11-23T01:02:04;3.60;99.90
46364;DHT22;32071;49.036;9.344;2022-11-23T01:04:30;3.60;99.90
46364;DHT22;32071;49.036;9.344;2022-11-23T01:06:55;3.70;99.90
46364;DHT22;32071;49.036;9.344;2022-11-23T01:09:22;3.70;99.90
46364;DHT22;32071;49.036;9.344;2022-11-23T01:11:51;3.70;99.90
46364;DHT22;32071;49.036;9.344;2022-11-23T01:14:17;3.80;99.90
46364;DHT22;32071;49.036;9.344;2022-11-23T01:16:43;3.80;99.90
46364;DHT22;32071;49.036;9.344;2022-11-23T01:19:11;3.90;99.90
46364;DHT22;32071;49.036;9.344;2022-11-23T01:21:37;3.90;99.90
46364;DHT22;32071;49.036;9.344;2022-11-23T01:24:08;4.00;99.90
46364;DHT22;32071;49.036;9.344;2022-11-23T01:26:34;4.00;99.90
46364;DHT22;32071;49.036;9.344;2022-11-23T01:28:59;4.00;99.90
46364;DHT22;32071;49.036;9.344;2022-11-23T01:31:25;4.10;99.90
46364;DHT22;32071;49.036;9.344;2022-11-23T01:33:54;4.20;99.90
46364;DHT22;32071;49.036;9.344;2022-11-23T01:36:26;4.20;99.90
46364;DHT22;32071;49.036;9.344;2022-11-23T01:38:52;4.20;99.90
46364;DHT22;32071;49.036;9.344;2022-11-23T01:41:29;4.20;99.90
46364;DHT22;32071;49.036;9.344;2022-11-23T01:43:55;4.20;99.90
46364;DHT22;32071;49.036;9.344;2022-11-23T01:46:20;4.20;99.90
46364;DHT22;32071;49.036;9.344;2022-11-23T01:51:22;4.20;99.90
46364;DHT22;32071;49.036;9.344;2022-11-23T01:53:51;4.20;99.90
46364;DHT22;32071;49.036;9.344;2022-11-23T01:56:21;4.20;99.90
46364;DHT22;32071;49.036;9.344;2022-11-23T01:58:52;4.20;99.90
46364;DHT22;32071;49.036;9.344;2022-11-23T02:01:18;4.20;99.90
46364;DHT22;32071;49.036;9.344;2022-11-23T02:03:46;4.20;99.90
46364;DHT22;32071;49.036;9.344;2022-11-23T02:06:17;4.10;99.90
46364;DHT22;32071;49.036;9.344;2022-11-23T02:08:44;4.20;99.90
46364;DHT22;32071;49.036;9.344;2022-11-23T02:11:11;4.20;99.90
46364;DHT22;32071;49.036;9.344;2022-11-23T02:13:38;4.30;99.90
46364;DHT22;32071;49.036;9.344;2022-11-23T02:16:04;4.30;99.90
46364;DHT22;32071;49.036;9.344;2022-11-23T02:18:31;4.30;99.90
46364;DHT22;32071;49.036;9.344;2022-11-23T02:20:58;4.30;99.90
46364;DHT22;32071;49.036;9.344;2022-11-23T02:23:40;4.30;99.90
46364;DHT22;32071;49.036;9.344;2022-11-23T02:26:17;4.40;99.90
46364;DHT22;32071;49.036;9.344;2022-11-23T02:29:02;4.50;99.90
46364;DHT22;32071;49.036;9.344;2022-11-23T02:31:28;4.50;99.90
46364;DHT22;32071;49.036;9.344;2022-11-23T02:33:54;4.50;99.90
46364;DHT22;32071;49.036;9.344;2022-11-23T02:39:07;4.60;99.90
46364;DHT22;32071;49.036;9.344;2022-11-23T02:41:38;4.60;99.90
46364;DHT22;32071;49.036;9.344;2022-11-23T02:44:06;4.70;99.90
46364;DHT22;32071;49.036;9.344;2022-11-23T02:46:35;4.70;99.90
46364;DHT22;32071;49.036;9.344;2022-11-23T02:49:01;4.70;99.90
46364;DHT22;32071;49.036;9.344;2022-11-23T02:51:26;4.80;99.90
46364;DHT22;32071;49.036;9.344;2022-11-23T02:53:52;4.80;99.90
46364;DHT22;32071;49.036;9.344;2022-11-23T02:56:17;4.80;99.90
46364;DHT22;32071;49.036;9.344;2022-11-23T02:58:43;4.80;99.90
46364;DHT22;32071;49.036;9.344;2022-11-23T03:01:08;4.90;99.90
46364;DHT22;32071;49.036;9.344;2022-11-23T03:03:34;4.90;99.90
46364;DHT22;32071;49.036;9.344;2022-11-23T03:05:59;4.90;99.90
46364;DHT22;32071;49.036;9.344;2022-11-23T03:08:25;4.90;99.90
46364;DHT22;32071;49.036;9.344;2022-11-23T03:10:50;4.90;99.90
46364;DHT22;32071;49.036;9.344;2022-11-23T03:13:16;4.90;99.90
46364;DHT22;32071;49.036;9.344;2022-11-23T03:15:41;4.90;99.90
46364;DHT22;32071;49.036;9.344;2022-11-23T03:18:07;4.90;99.90
46364;DHT22;32071;49.036;9.344;2022-11-23T03:20:33;5.00;99.90
46364;DHT22;32071;49.036;9.344;2022-11-23T03:22:58;5.00;99.90
46364;DHT22;32071;49.036;9.344;2022-11-23T03:25:24;5.10;99.90
46364;DHT22;32071;49.036;9.344;2022-11-23T03:27:49;5.10;99.90
46364;DHT22;32071;49.036;9.344;2022-11-23T03:30:15;5.10;99.90
46364;DHT22;32071;49.036;9.344;2022-11-23T03:32:40;5.10;99.90
46364;DHT22;32071;49.036;9.344;2022-11-23T03:35:06;5.20;99.90
46364;DHT22;32071;49.036;9.344;2022-11-23T03:37:32;5.20;99.90
46364;DHT22;32071;49.036;9.344;2022-11-23T03:39:58;5.30;99.90
46364;DHT22;32071;49.036;9.344;2022-11-23T03:42:24;5.30;99.90
46364;DHT22;32071;49.036;9.344;2022-11-23T03:44:49;5.40;99.90
46364;DHT22;32071;49.036;9.344;2022-11-23T03:47:15;5.40;99.90
46364;DHT22;32071;49.036;9.344;2022-11-23T03:49:40;5.40;99.90
46364;DHT22;32071;49.036;9.344;2022-11-23T03:52:06;5.40;99.90
46364;DHT22;32071;49.036;9.344;2022-11-23T03:54:32;5.40;99.90
46364;DHT22;32071;49.036;9.344;2022-11-23T03:56:57;5.40;99.90
46364;DHT22;32071;49.036;9.344;2022-11-23T03:59:23;5.40;99.90
46364;DHT22;32071;49.036;9.344;2022-11-23T04:01:48;5.40;99.90
46364;DHT22;32071;49.036;9.344;2022-11-23T04:04:14;5.40;99.90
46364;DHT22;32071;49.036;9.344;2022-11-23T04:06:39;5.40;99.90
46364;DHT22;32071;49.036;9.344;2022-11-23T04:09:05;5.40;99.90
46364;DHT22;32071;49.036;9.344;2022-11-23T04:11:31;5.40;99.90
46364;DHT22;32071;49.036;9.344;2022-11-23T04:13:56;5.40;99.90
46364;DHT22;32071;49.036;9.344;2022-11-23T04:16:22;5.40;99.90
46364;DHT22;32071;49.036;9.344;2022-11-23T04:18:47;5.40;99.90
46364;DHT22;32071;49.036;9.344;2022-11-23T04:21:13;5.40;99.90
46364;DHT22;32071;49.036;9.344;2022-11-23T04:23:38;5.40;99.90
46364;DHT22;32071;49.036;9.344;2022-11-23T04:26:04;5.50;99.90
46364;DHT22;32071;49.036;9.344;2022-11-23T04:28:29;5.50;99.90
46364;DHT22;32071;49.036;9.344;2022-11-23T04:30:55;5.50;99.90
46364;DHT22;32071;49.036;9.344;2022-11-23T04:33:23;5.50;99.90
46364;DHT22;32071;49.036;9.344;2022-11-23T04:35:49;5.50;99.90
46364;DHT22;32071;49.036;9.344;2022-11-23T04:38:14;5.50;99.90
46364;DHT22;32071;49.036;9.344;2022-11-23T04:40:40;5.50;99.90
46364;DHT22;32071;49.036;9.344;2022-11-23T04:43:05;5.50;99.90
46364;DHT22;32071;49.036;9.344;2022-11-23T04:45:31;5.50;99.90
46364;DHT22;32071;49.036;9.344;2022-11-23T04:47:56;5.50;99.90
46364;DHT22;32071;49.036;9.344;2022-11-23T04:50:22;5.50;99.90
46364;DHT22;32071;49.036;9.344;2022-11-23T04:52:47;5.50;99.90
46364;DHT22;32071;49.036;9.344;2022-11-23T04:55:13;5.50;99.90
46364;DHT22;32071;49.036;9.344;2022-11-23T04:57:39;5.50;99.90
46364;DHT22;32071;49.036;9.344;2022-11-23T05:00:05;5.50;99.90
46364;DHT22;32071;49.036;9.344;2022-11-23T05:02:30;5.50;99.90
46364;DHT22;32071;49.036;9.344;2022-11-23T05:04:56;5.50;99.90
46364;DHT22;32071;49.036;9.344;2022-11-23T05:07:21;5.50;99.90
46364;DHT22;32071;49.036;9.344;2022-11-23T05:09:47;5.50;99.90
46364;DHT22;32071;49.036;9.344;2022-11-23T05:12:13;5.50;99.90
46364;DHT22;32071;49.036;9.344;2022-11-23T05:14:38;5.50;99.90
46364;DHT22;32071;49.036;9.344;2022-11-23T05:17:04;5.50;99.90
46364;DHT22;32071;49.036;9.344;2022-11-23T05:19:29;5.40;99.90
46364;DHT22;32071;49.036;9.344;2022-11-23T05:21:55;5.30;99.90
46364;DHT22;32071;49.036;9.344;2022-11-23T05:24:20;5.30;99.90
46364;DHT22;32071;49.036;9.344;2022-11-23T05:26:46;5.30;99.90
46364;DHT22;32071;49.036;9.344;2022-11-23T05:29:11;5.30;99.90
46364;DHT22;32071;49.036;9.344;2022-11-23T05:31:37;5.30;99.90
46364;DHT22;32071;49.036;9.344;2022-11-23T05:34:02;5.30;99.90
46364;DHT22;32071;49.036;9.344;2022-11-23T05:36:28;5.30;99.90
46364;DHT22;32071;49.036;9.344;2022-11-23T05:38:54;5.30;99.90
46364;DHT22;32071;49.036;9.344;2022-11-23T05:45:08;5.10;99.90
46364;DHT22;32071;49.036;9.344;2022-11-23T05:47:34;5.10;99.90
46364;DHT22;32071;49.036;9.344;2022-11-23T05:49:59;5.00;99.90
46364;DHT22;32071;49.036;9.344;2022-11-23T05:52:25;4.90;99.90
46364;DHT22;32071;49.036;9.344;2022-11-23T05:54:51;4.70;99.90
46364;DHT22;32071;49.036;9.344;2022-11-23T05:57:16;4.60;99.90
46364;DHT22;32071;49.036;9.344;2022-11-23T05:59:42;4.50;99.90
46364;DHT22;32071;49.036;9.344;2022-11-23T06:02:08;4.40;99.90
46364;DHT22;32071;49.036;9.344;2022-11-23T06:04:33;4.30;99.90
46364;DHT22;32071;49.036;9.344;2022-11-23T06:06:59;4.30;99.90
46364;DHT22;32071;49.036;9.344;2022-11-23T06:09:26;4.30;99.90
46364;DHT22;32071;49.036;9.344;2022-11-23T06:11:52;4.30;99.90
46364;DHT22;32071;49.036;9.344;2022-11-23T06:14:18;4.20;99.90
46364;DHT22;32071;49.036;9.344;2022-11-23T06:16:43;4.30;99.90
46364;DHT22;32071;49.036;9.344;2022-11-23T06:19:09;4.30;99.90
46364;DHT22;32071;49.036;9.344;2022-11-23T06:21:34;4.30;99.90
46364;DHT22;32071;49.036;9.344;2022-11-23T06:24:00;4.20;99.90
46364;DHT22;32071;49.036;9.344;2022-11-23T06:26:25;4.20;99.90
46364;DHT22;32071;49.036;9.344;2022-11-23T06:28:51;4.10;99.90
46364;DHT22;32071;49.036;9.344;2022-11-23T06:31:17;4.00;99.90
46364;DHT22;32071;49.036;9.344;2022-11-23T06:33:42;3.90;99.90
46364;DHT22;32071;49.036;9.344;2022-11-23T06:36:09;3.90;99.90
46364;DHT22;32071;49.036;9.344;2022-11-23T06:38:35;3.90;99.90
46364;DHT22;32071;49.036;9.344;2022-11-23T06:41:01;3.90;99.90
46364;DHT22;32071;49.036;9.344;2022-11-23T06:43:27;3.80;99.90
46364;DHT22;32071;49.036;9.344;2022-11-23T06:45:54;3.80;99.90
46364;DHT22;32071;49.036;9.344;2022-11-23T06:48:20;3.90;99.90
46364;DHT22;32071;49.036;9.344;2022-11-23T06:50:45;3.80;99.90
46364;DHT22;32071;49.036;9.344;2022-11-23T06:53:11;3.80;99.90
46364;DHT22;32071;49.036;9.344;2022-11-23T06:55:37;3.80;99.90
46364;DHT22;32071;49.036;9.344;2022-11-23T06:58:03;3.70;99.90
46364;DHT22;32071;49.036;9.344;2022-11-23T07:00:28;3.70;99.90
46364;DHT22;32071;49.036;9.344;2022-11-23T07:02:55;3.70;99.90
46364;DHT22;32071;49.036;9.344;2022-11-23T07:05:21;3.60;99.90
46364;DHT22;32071;49.036;9.344;2022-11-23T07:07:47;3.60;99.90
46364;DHT22;32071;49.036;9.344;2022-11-23T07:10:13;3.60;99.90
46364;DHT22;32071;49.036;9.344;2022-11-23T07:12:39;3.70;99.90
46364;DHT22;32071;49.036;9.344;2022-11-23T07:15:05;3.70;99.90
46364;DHT22;32071;49.036;9.344;2022-11-23T07:17:31;3.80;99.90
46364;DHT22;32071;49.036;9.344;2022-11-23T07:19:57;3.80;99.90
46364;DHT22;32071;49.036;9.344;2022-11-23T07:22:22;3.90;99.90
46364;DHT22;32071;49.036;9.344;2022-11-23T07:24:48;3.90;99.90
46364;DHT22;32071;49.036;9.344;2022-11-23T07:27:16;4.00;99.90
46364;DHT22;32071;49.036;9.344;2022-11-23T07:29:41;4.10;99.90
46364;DHT22;32071;49.036;9.344;2022-11-23T07:32:07;4.20;99.90
46364;DHT22;32071;49.036;9.344;2022-11-23T07:34:33;4.30;99.90
46364;DHT22;32071;49.036;9.344;2022-11-23T07:36:58;4.40;99.90
46364;DHT22;32071;49.036;9.344;2022-11-23T07:39:24;4.50;99.90
46364;DHT22;32071;49.036;9.344;2022-11-23T07:41:49;4.60;99.90
46364;DHT22;32071;49.036;9.344;2022-11-23T07:44:15;4.70;99.90
46364;DHT22;32071;49.036;9.344;2022-11-23T07:46:41;4.80;99.90
46364;DHT22;32071;49.036;9.344;2022-11-23T07:49:06;4.90;99.90
46364;DHT22;32071;49.036;9.344;2022-11-23T07:51:32;5.00;99.90
46364;DHT22;32071;49.036;9.344;2022-11-23T07:53:58;5.10;99.90
46364;DHT22;32071;49.036;9.344;2022-11-23T07:56:24;5.20;99.90
46364;DHT22;32071;49.036;9.344;2022-11-23T07:58:49;5.30;99.90
46364;DHT22;32071;49.036;9.344;2022-11-23T08:01:16;5.30;99.90
46364;DHT22;32071;49.036;9.344;2022-11-23T08:03:43;5.40;99.90
46364;DHT22;32071;49.036;9.344;2022-11-23T08:06:09;5.50;99.90
46364;DHT22;32071;49.036;9.344;2022-11-23T08:08:35;5.60;99.90
46364;DHT22;32071;49.036;9.344;2022-11-23T08:11:01;5.60;99.90
46364;DHT22;32071;49.036;9.344;2022-11-23T08:13:29;5.80;99.90
46364;DHT22;32071;49.036;9.344;2022-11-23T08:15:56;5.90;99.90
46364;DHT22;32071;49.036;9.344;2022-11-23T08:18:23;6.00;99.90
46364;DHT22;32071;49.036;9.344;2022-11-23T08:20:49;6.10;99.90
46364;DHT22;32071;49.036;9.344;2022-11-23T08:23:14;6.30;99.90
46364;DHT22;32071;49.036;9.344;2022-11-23T08:25:40;6.30;99.90
46364;DHT22;32071;49.036;9.344;2022-11-23T08:28:06;6.40;99.90
46364;DHT22;32071;49.036;9.344;2022-11-23T08:30:33;6.60;99.90
46364;DHT22;32071;49.036;9.344;2022-11-23T08:33:01;6.70;99.90
46364;DHT22;32071;49.036;9.344;2022-11-23T08:35:28;6.90;99.90
46364;DHT22;32071;49.036;9.344;2022-11-23T08:37:53;7.00;99.90
46364;DHT22;32071;49.036;9.344;2022-11-23T08:40:19;7.10;99.90
46364;DHT22;32071;49.036;9.344;2022-11-23T08:42:47;7.20;99.90
46364;DHT22;32071;49.036;9.344;2022-11-23T08:45:13;7.30;99.90
46364;DHT22;32071;49.036;9.344;2022-11-23T08:47:39;7.40;99.90
46364;DHT22;32071;49.036;9.344;2022-11-23T08:50:06;7.50;99.90
46364;DHT22;32071;49.036;9.344;2022-11-23T08:52:32;7.50;99.90
46364;DHT22;32071;49.036;9.344;2022-11-23T08:54:58;7.50;99.90
46364;DHT22;32071;49.036;9.344;2022-11-23T08:57:27;7.60;99.90
46364;DHT22;32071;49.036;9.344;2022-11-23T08:59:52;7.60;99.90
46364;DHT22;32071;49.036;9.344;2022-11-23T09:02:18;7.70;99.90
46364;DHT22;32071;49.036;9.344;2022-11-23T09:04:44;7.80;99.90
46364;DHT22;32071;49.036;9.344;2022-11-23T09:07:10;7.80;99.90
46364;DHT22;32071;49.036;9.344;2022-11-23T09:09:36;7.80;99.90
46364;DHT22;32071;49.036;9.344;2022-11-23T09:12:02;7.80;99.90
46364;DHT22;32071;49.036;9.344;2022-11-23T09:14:28;7.90;99.90
46364;DHT22;32071;49.036;9.344;2022-11-23T09:16:54;8.00;99.90
46364;DHT22;32071;49.036;9.344;2022-11-23T09:19:19;8.00;99.90
46364;DHT22;32071;49.036;9.344;2022-11-23T09:21:46;8.00;99.90
46364;DHT22;32071;49.036;9.344;2022-11-23T09:24:12;8.10;99.90
46364;DHT22;32071;49.036;9.344;2022-11-23T09:26:38;8.10;99.90
46364;DHT22;32071;49.036;9.344;2022-11-23T09:29:06;8.20;99.90
46364;DHT22;32071;49.036;9.344;2022-11-23T09:31:32;8.20;99.90
46364;DHT22;32071;49.036;9.344;2022-11-23T09:33:58;8.20;99.90
46364;DHT22;32071;49.036;9.344;2022-11-23T09:36:24;8.20;99.90
46364;DHT22;32071;49.036;9.344;2022-11-23T09:38:50;8.20;99.90
46364;DHT22;32071;49.036;9.344;2022-11-23T09:49:49;7.90;99.90
46364;DHT22;32071;49.036;9.344;2022-11-23T09:52:20;7.90;99.90
46364;DHT22;32071;49.036;9.344;2022-11-23T09:54:47;7.90;99.90
46364;DHT22;32071;49.036;9.344;2022-11-23T09:57:19;7.90;99.90
46364;DHT22;32071;49.036;9.344;2022-11-23T09:59:54;8.00;99.90
46364;DHT22;32071;49.036;9.344;2022-11-23T10:02:24;8.00;99.90
46364;DHT22;32071;49.036;9.344;2022-11-23T10:04:55;8.00;99.90
46364;DHT22;32071;49.036;9.344;2022-11-23T10:18:35;8.20;99.90
46364;DHT22;32071;49.036;9.344;2022-11-23T10:24:01;8.40;99.90
46364;DHT22;32071;49.036;9.344;2022-11-23T10:26:37;8.40;99.90
46364;DHT22;32071;49.036;9.344;2022-11-23T10:29:27;8.40;99.90
46364;DHT22;32071;49.036;9.344;2022-11-23T10:31:54;8.40;99.90
46364;DHT22;32071;49.036;9.344;2022-11-23T10:37:12;8.60;99.90
46364;DHT22;32071;49.036;9.344;2022-11-23T10:39:38;8.70;99.90
46364;DHT22;32071;49.036;9.344;2022-11-23T10:44:49;8.80;99.90
46364;DHT22;32071;49.036;9.344;2022-11-23T10:47:49;8.90;99.90
46364;DHT22;32071;49.036;9.344;2022-11-23T10:50:30;8.90;99.90
46364;DHT22;32071;49.036;9.344;2022-11-23T10:53:21;9.00;99.90
46364;DHT22;32071;49.036;9.344;2022-11-23T10:55:56;9.00;99.90
46364;DHT22;32071;49.036;9.344;2022-11-23T10:58:32;9.00;99.90
46364;DHT22;32071;49.036;9.344;2022-11-23T11:01:10;9.10;99.90
46364;DHT22;32071;49.036;9.344;2022-11-23T11:03:36;9.10;99.90
46364;DHT22;32071;49.036;9.344;2022-11-23T11:06:02;9.20;99.90
46364;DHT22;32071;49.036;9.344;2022-11-23T11:08:46;9.20;99.90
46364;DHT22;32071;49.036;9.344;2022-11-23T11:11:29;9.30;99.90
46364;DHT22;32071;49.036;9.344;2022-11-23T11:14:17;9.40;99.90
46364;DHT22;32071;49.036;9.344;2022-11-23T11:16:51;9.40;99.90
46364;DHT22;32071;49.036;9.344;2022-11-23T11:19:28;9.40;99.90
46364;DHT22;32071;49.036;9.344;2022-11-23T11:21:56;9.50;99.90
46364;DHT22;32071;49.036;9.344;2022-11-23T11:24:42;9.50;99.90
46364;DHT22;32071;49.036;9.344;2022-11-23T11:35:31;9.80;99.90
46364;DHT22;32071;49.036;9.344;2022-11-23T11:38:03;9.90;99.90
46364;DHT22;32071;49.036;9.344;2022-11-23T11:40:35;9.90;99.90
46364;DHT22;32071;49.036;9.344;2022-11-23T11:43:47;9.90;99.90
46364;DHT22;32071;49.036;9.344;2022-11-23T11:46:21;10.00;99.90
46364;DHT22;32071;49.036;9.344;2022-11-23T11:48:53;9.90;99.90
46364;DHT22;32071;49.036;9.344;2022-11-23T11:51:25;9.90;99.90
46364;DHT22;32071;49.036;9.344;2022-11-23T11:54:20;9.90;99.90
46364;DHT22;32071;49.036;9.344;2022-11-23T11:56:45;10.00;99.90
46364;DHT22;32071;49.036;9.344;2022-11-23T11:59:31;10.00;99.90
46364;DHT22;32071;49.036;9.344;2022-11-23T12:02:18;10.00;99.90
46364;DHT22;32071;49.036;9.344;2022-11-23T12:04:46;10.10;99.90
46364;DHT22;32071;49.036;9.344;2022-11-23T12:07:28;10.20;99.90
46364;DHT22;32071;49.036;9.344;2022-11-23T12:10:16;10.30;99.90
46364;DHT22;32071;49.036;9.344;2022-11-23T12:12:43;10.30;99.90
46364;DHT22;32071;49.036;9.344;2022-11-23T12:15:17;10.30;99.90
46364;DHT22;32071;49.036;9.344;2022-11-23T12:23:28;10.30;99.90
46364;DHT22;32071;49.036;9.344;2022-11-23T12:26:17;10.30;99.90
46364;DHT22;32071;49.036;9.344;2022-11-23T12:28:50;10.20;99.90
46364;DHT22;32071;49.036;9.344;2022-11-23T12:32:01;10.20;99.90
46364;DHT22;32071;49.036;9.344;2022-11-23T12:42:44;10.20;99.90
46364;DHT22;32071;49.036;9.344;2022-11-23T12:50:41;10.20;99.90
46364;DHT22;32071;49.036;9.344;2022-11-23T12:58:37;10.30;99.90
46364;DHT22;32071;49.036;9.344;2022-11-23T13:01:11;10.30;99.90
46364;DHT22;32071;49.036;9.344;2022-11-23T13:12:07;10.10;99.90
46364;DHT22;32071;49.036;9.344;2022-11-23T13:14:59;10.10;99.90
46364;DHT22;32071;49.036;9.344;2022-11-23T13:17:59;10.10;99.90
46364;DHT22;32071;49.036;9.344;2022-11-23T13:20:43;10.10;99.90
46364;DHT22;32071;49.036;9.344;2022-11-23T13:23:10;10.10;99.90
46364;DHT22;32071;49.036;9.344;2022-11-23T13:25:36;10.00;99.90
46364;DHT22;32071;49.036;9.344;2022-11-23T13:28:26;10.00;99.90
46364;DHT22;32071;49.036;9.344;2022-11-23T13:31:21;10.00;99.90
46364;DHT22;32071;49.036;9.344;2022-11-23T13:34:42;10.00;99.90
46364;DHT22;32071;49.036;9.344;2022-11-23T13:37:02;10.00;99.90
46364;DHT22;32071;49.036;9.344;2022-11-23T13:42:26;10.00;99.90
46364;DHT22;32071;49.036;9.344;2022-11-23T13:45:16;10.00;99.90
46364;DHT22;32071;49.036;9.344;2022-11-23T13:50:39;10.00;99.90
46364;DHT22;32071;49.036;9.344;2022-11-23T13:53:27;10.00;99.90
46364;DHT22;32071;49.036;9.344;2022-11-23T13:55:56;10.00;99.90
46364;DHT22;32071;49.036;9.344;2022-11-23T14:00:56;10.00;99.90
46364;DHT22;32071;49.036;9.344;2022-11-23T14:08:50;9.90;99.90
46364;DHT22;32071;49.036;9.344;2022-11-23T14:11:21;9.90;99.90
46364;DHT22;32071;49.036;9.344;2022-11-23T14:13:53;9.80;99.90
46364;DHT22;32071;49.036;9.344;2022-11-23T14:22:07;9.50;99.90
46364;DHT22;32071;49.036;9.344;2022-11-23T14:24:57;9.50;99.90
46364;DHT22;32071;49.036;9.344;2022-11-23T14:30:42;9.30;99.90
46364;DHT22;32071;49.036;9.344;2022-11-23T14:41:18;9.10;99.90
46364;DHT22;32071;49.036;9.344;2022-11-23T14:43:45;9.00;99.90
46364;DHT22;32071;49.036;9.344;2022-11-23T14:46:15;8.90;99.90
46364;DHT22;32071;49.036;9.344;2022-11-23T14:48:43;8.90;99.90
46364;DHT22;32071;49.036;9.344;2022-11-23T14:51:17;8.90;99.90
46364;DHT22;32071;49.036;9.344;2022-11-23T14:53:45;8.80;99.90
46364;DHT22;32071;49.036;9.344;2022-11-23T14:56:33;8.70;99.90
46364;DHT22;32071;49.036;9.344;2022-11-23T14:59:08;8.60;99.90
46364;DHT22;32071;49.036;9.344;2022-11-23T15:01:36;8.40;99.90
46364;DHT22;32071;49.036;9.344;2022-11-23T15:04:16;8.30;99.90
46364;DHT22;32071;49.036;9.344;2022-11-23T15:06:47;8.10;99.90
46364;DHT22;32071;49.036;9.344;2022-11-23T15:09:29;7.80;99.90
46364;DHT22;32071;49.036;9.344;2022-11-23T15:12:20;7.40;99.90
46364;DHT22;32071;49.036;9.344;2022-11-23T15:14:46;7.10;99.90
46364;DHT22;32071;49.036;9.344;2022-11-23T15:17:20;6.90;99.90
46364;DHT22;32071;49.036;9.344;2022-11-23T15:19:57;6.70;99.90
46364;DHT22;32071;49.036;9.344;2022-11-23T15:22:23;6.50;99.90
46364;DHT22;32071;49.036;9.344;2022-11-23T15:24:50;6.30;99.90
46364;DHT22;32071;49.036;9.344;2022-11-23T15:27:24;6.20;99.90
46364;DHT22;32071;49.036;9.344;2022-11-23T15:29:52;6.10;99.90
46364;DHT22;32071;49.036;9.344;2022-11-23T15:34:46;5.80;99.90
46364;DHT22;32071;49.036;9.344;2022-11-23T15:37:12;5.60;99.90
46364;DHT22;32071;49.036;9.344;2022-11-23T15:39:38;5.50;99.90
46364;DHT22;32071;49.036;9.344;2022-11-23T15:42:04;5.40;99.90
46364;DHT22;32071;49.036;9.344;2022-11-23T15:44:31;5.30;99.90
46364;DHT22;32071;49.036;9.344;2022-11-23T15:47:02;5.20;99.90
46364;DHT22;32071;49.036;9.344;2022-11-23T15:49:37;5.10;99.90
46364;DHT22;32071;49.036;9.344;2022-11-23T15:52:03;5.00;99.90
46364;DHT22;32071;49.036;9.344;2022-11-23T15:54:36;4.90;99.90
46364;DHT22;32071;49.036;9.344;2022-11-23T15:57:06;4.90;99.90
46364;DHT22;32071;49.036;9.344;2022-11-23T16:02:20;4.80;99.90
46364;DHT22;32071;49.036;9.344;2022-11-23T16:04:46;4.70;99.90
46364;DHT22;32071;49.036;9.344;2022-11-23T16:07:20;4.60;99.90
46364;DHT22;32071;49.036;9.344;2022-11-23T16:10:12;4.60;99.90
46364;DHT22;32071;49.036;9.344;2022-11-23T16:12:51;4.60;99.90
46364;DHT22;32071;49.036;9.344;2022-11-23T16:15:30;4.60;99.90
46364;DHT22;32071;49.036;9.344;2022-11-23T16:18:02;4.60;99.90
46364;DHT22;32071;49.036;9.344;2022-11-23T16:20:28;4.60;99.90
46364;DHT22;32071;49.036;9.344;2022-11-23T16:22:55;4.60;99.90
46364;DHT22;32071;49.036;9.344;2022-11-23T16:25:32;4.60;99.90
46364;DHT22;32071;49.036;9.344;2022-11-23T16:28:02;4.60;99.90
46364;DHT22;32071;49.036;9.344;2022-11-23T16:30:37;4.60;99.90
46364;DHT22;32071;49.036;9.344;2022-11-23T16:33:04;4.70;99.90
46364;DHT22;32071;49.036;9.344;2022-11-23T16:35:30;4.70;99.90
46364;DHT22;32071;49.036;9.344;2022-11-23T16:37:56;4.80;99.90
46364;DHT22;32071;49.036;9.344;2022-11-23T16:40:21;4.80;99.90
46364;DHT22;32071;49.036;9.344;2022-11-23T16:42:51;4.80;99.90
46364;DHT22;32071;49.036;9.344;2022-11-23T16:45:17;4.90;99.90
46364;DHT22;32071;49.036;9.344;2022-11-23T16:47:57;5.00;99.90
46364;DHT22;32071;49.036;9.344;2022-11-23T16:50:28;5.10;99.90
46364;DHT22;32071;49.036;9.344;2022-11-23T16:52:54;5.20;99.90
46364;DHT22;32071;49.036;9.344;2022-11-23T16:55:20;5.30;99.90
46364;DHT22;32071;49.036;9.344;2022-11-23T16:57:45;5.30;99.90
46364;DHT22;32071;49.036;9.344;2022-11-23T17:00:17;5.30;99.90
46364;DHT22;32071;49.036;9.344;2022-11-23T17:02:43;5.40;99.90
46364;DHT22;32071;49.036;9.344;2022-11-23T17:05:17;5.40;99.90
46364;DHT22;32071;49.036;9.344;2022-11-23T17:07:43;5.50;99.90
46364;DHT22;32071;49.036;9.344;2022-11-23T17:10:10;5.60;99.90
46364;DHT22;32071;49.036;9.344;2022-11-23T17:12:36;5.70;99.90
46364;DHT22;32071;49.036;9.344;2022-11-23T17:15:03;5.70;99.90
46364;DHT22;32071;49.036;9.344;2022-11-23T17:17:29;5.80;99.90
46364;DHT22;32071;49.036;9.344;2022-11-23T17:19:55;5.90;99.90
46364;DHT22;32071;49.036;9.344;2022-11-23T17:22:21;6.10;99.90
46364;DHT22;32071;49.036;9.344;2022-11-23T17:24:47;6.30;99.90
46364;DHT22;32071;49.036;9.344;2022-11-23T17:27:19;6.50;99.90
46364;DHT22;32071;49.036;9.344;2022-11-23T17:29:46;6.70;99.90
46364;DHT22;32071;49.036;9.344;2022-11-23T17:32:14;6.90;99.90
46364;DHT22;32071;49.036;9.344;2022-11-23T17:34:40;7.10;99.90
46364;DHT22;32071;49.036;9.344;2022-11-23T17:37:05;7.30;99.90
46364;DHT22;32071;49.036;9.344;2022-11-23T17:39:36;7.40;99.90
46364;DHT22;32071;49.036;9.344;2022-11-23T17:42:02;7.40;99.90
46364;DHT22;32071;49.036;9.344;2022-11-23T17:44:28;7.50;99.90
46364;DHT22;32071;49.036;9.344;2022-11-23T17:46:56;7.60;99.90
46364;DHT22;32071;49.036;9.344;2022-11-23T17:49:24;7.60;99.90
46364;DHT22;32071;49.036;9.344;2022-11-23T17:51:55;7.60;99.90
46364;DHT22;32071;49.036;9.344;2022-11-23T17:54:24;7.70;99.90